createdAt,value
2018-06-03T00:10:28.000Z,47.804
2018-06-03T00:20:28.000Z,47.791
2018-06-03T00:30:28.000Z,47.777
2018-06-03T00:40:28.000Z,47.71
2018-06-03T00:50:28.000Z,47.762
2018-06-03T01:00:28.000Z,47.805
2018-06-03T01:10:28.000Z,47.922
2018-06-03T01:20:28.000Z,47.933
2018-06-03T01:30:28.000Z,48.007
2018-06-03T01:40:28.000Z,48.093
2018-06-03T01:50:28.000Z,48.136
2018-06-03T02:00:28.000Z,48.146
2018-06-03T02:10:28.000Z,48.166
2018-06-03T02:20:28.000Z,48.229
2018-06-03T02:30:28.000Z,48.259
2018-06-03T02:40:28.000Z,48.256
2018-06-03T02:50:28.000Z,48.267
2018-06-03T03:00:28.000Z,48.32
2018-06-03T03:10:28.000Z,48.374
2018-06-03T03:20:29.000Z,48.504
2018-06-03T03:30:28.000Z,48.612
2018-06-03T03:40:28.000Z,48.678
2018-06-03T03:50:29.000Z,48.829
2018-06-03T04:00:29.000Z,48.753
2018-06-03T04:10:29.000Z,48.883
2018-06-03T04:20:29.000Z,48.861
2018-06-03T04:30:29.000Z,48.98
2018-06-03T04:40:29.000Z,49.176
2018-06-03T04:50:29.000Z,49.172
2018-06-03T05:00:29.000Z,49.449
2018-06-03T05:10:29.000Z,50.222
2018-06-03T05:30:29.000Z,50.374
2018-06-03T05:40:29.000Z,50.175
2018-06-03T05:50:29.000Z,49.937
2018-06-03T06:00:29.000Z,50.167
2018-06-03T06:10:29.000Z,49.906
2018-06-03T06:20:29.000Z,50.027
2018-06-03T06:30:29.000Z,49.964
2018-06-03T06:40:29.000Z,49.771
2018-06-03T06:50:29.000Z,49.698
2018-06-03T07:00:29.000Z,49.444
2018-06-03T07:10:29.000Z,49.404
2018-06-03T07:20:29.000Z,49.138
2018-06-03T07:30:29.000Z,48.541
2018-06-03T07:40:29.000Z,48.335
2018-06-03T07:50:29.000Z,48.509
2018-06-03T08:00:29.000Z,48.209
2018-06-03T08:10:29.000Z,48.035
2018-06-03T08:20:29.000Z,47.82
2018-06-03T08:30:29.000Z,48.111
2018-06-03T08:40:29.000Z,47.818
2018-06-03T08:50:29.000Z,47.838
2018-06-03T09:00:29.000Z,47.678
2018-06-03T09:10:29.000Z,47.594
2018-06-03T09:20:29.000Z,47.821
2018-06-03T09:30:29.000Z,48.317
2018-06-03T09:40:29.000Z,47.748
2018-06-03T09:50:29.000Z,47.311
2018-06-03T10:00:29.000Z,46.59
2018-06-03T10:10:29.000Z,46.015
2018-06-03T10:20:29.000Z,45.436
2018-06-03T10:30:29.000Z,45.867
2018-06-03T10:40:29.000Z,45.829
2018-06-03T10:50:30.000Z,45.65
2018-06-03T11:00:29.000Z,44.556
2018-06-03T11:10:29.000Z,44.065
2018-06-03T11:20:29.000Z,43.715
2018-06-03T11:30:29.000Z,42.897
2018-06-03T11:40:29.000Z,42.43
2018-06-03T11:50:32.000Z,41.931
2018-06-03T12:10:30.000Z,41.092
2018-06-03T12:20:30.000Z,41.403
2018-06-03T12:30:30.000Z,41.518
2018-06-03T12:50:30.000Z,41.26
2018-06-03T13:00:30.000Z,41.151
2018-06-03T13:10:30.000Z,42.046
2018-06-03T13:20:30.000Z,41.144
2018-06-03T13:30:30.000Z,40.955
2018-06-03T13:40:30.000Z,40.76
2018-06-03T13:50:30.000Z,41.017
2018-06-03T14:10:30.000Z,40.943
2018-06-03T14:20:30.000Z,40.914
2018-06-03T14:30:30.000Z,40.49
2018-06-03T14:40:30.000Z,40.285
2018-06-03T14:50:32.000Z,40.566
2018-06-03T15:00:30.000Z,40.689
2018-06-03T15:10:30.000Z,41.205
2018-06-03T15:20:30.000Z,42.061
2018-06-03T15:40:30.000Z,42.33
2018-06-03T15:50:30.000Z,42.019
2018-06-03T16:00:30.000Z,41.377
2018-06-03T16:10:30.000Z,41.087
2018-06-03T16:20:30.000Z,41.211
2018-06-03T16:30:30.000Z,41.122
2018-06-03T16:40:30.000Z,40.954
2018-06-03T16:50:30.000Z,40.975
2018-06-03T17:00:30.000Z,40.961
2018-06-03T17:10:34.000Z,41
2018-06-03T17:20:30.000Z,41.103
2018-06-03T17:30:30.000Z,41.014
2018-06-03T17:40:30.000Z,41.127
2018-06-03T18:00:30.000Z,41.607
2018-06-03T18:10:31.000Z,41.559
2018-06-03T18:20:31.000Z,41.648
2018-06-03T18:30:30.000Z,43.166
2018-06-03T18:40:30.000Z,43.014
2018-06-03T18:50:30.000Z,43.059
2018-06-03T19:00:30.000Z,43.252
2018-06-03T19:10:30.000Z,42.982
2018-06-03T19:30:34.000Z,43.479
2018-06-03T19:40:30.000Z,43.663
2018-06-03T19:50:30.000Z,43.943
2018-06-03T20:00:31.000Z,44.063
2018-06-03T20:20:34.000Z,44.39
2018-06-03T20:30:31.000Z,44.467
2018-06-03T21:30:32.000Z,45.277
2018-06-03T21:40:31.000Z,45.166
2018-06-03T21:50:31.000Z,45.33
2018-06-03T22:00:31.000Z,45.458
2018-06-03T22:10:31.000Z,45.456
2018-06-03T22:20:31.000Z,45.651
2018-06-03T22:30:31.000Z,45.791
2018-06-03T22:40:31.000Z,45.92
2018-06-03T22:50:31.000Z,46.07
2018-06-03T23:00:31.000Z,46.233
2018-06-03T23:10:31.000Z,46.362
2018-06-03T23:20:31.000Z,46.588
2018-06-03T23:30:31.000Z,46.806
2018-06-03T23:40:31.000Z,46.947
2018-06-03T23:50:31.000Z,46.891
